createdAt,value
2018-07-25T00:00:48.836Z,18.47
2018-07-25T00:03:17.123Z,19.60
2018-07-25T00:05:45.417Z,18.00
2018-07-25T00:08:13.694Z,19.73
2018-07-25T00:10:52.076Z,19.20
2018-07-25T00:13:20.522Z,18.93
2018-07-25T00:15:48.782Z,18.90
2018-07-25T00:18:17.010Z,17.63
2018-07-25T00:20:45.291Z,19.37
2018-07-25T00:23:13.486Z,17.50
2018-07-25T00:25:41.721Z,18.07
2018-07-25T00:28:09.977Z,20.00
2018-07-25T00:30:38.181Z,18.87
2018-07-25T00:33:06.430Z,18.30
2018-07-25T00:35:34.772Z,18.57
2018-07-25T00:38:03.007Z,19.23
2018-07-25T00:40:30.954Z,18.30
2018-07-25T00:42:59.168Z,18.53
2018-07-25T00:45:27.345Z,19.20
2018-07-25T00:47:55.549Z,18.03
2018-07-25T00:50:23.849Z,19.30
2018-07-25T00:52:52.022Z,18.90
2018-07-25T00:55:20.269Z,18.83
2018-07-25T00:57:48.473Z,20.77
2018-07-25T01:00:17.982Z,18.37
2018-07-25T01:02:46.688Z,18.83
2018-07-25T01:05:15.119Z,20.00
2018-07-25T01:07:43.466Z,19.10
2018-07-25T01:10:11.695Z,18.93
2018-07-25T01:12:39.914Z,19.60
2018-07-25T01:15:08.614Z,20.30
2018-07-25T01:17:36.890Z,19.80
2018-07-25T01:20:05.381Z,21.50
2018-07-25T01:22:33.717Z,20.20
2018-07-25T01:25:02.556Z,18.60
2018-07-25T01:27:30.777Z,19.70
2018-07-25T01:29:59.003Z,19.03
2018-07-25T01:32:27.290Z,19.90
2018-07-25T01:34:55.506Z,18.30
2018-07-25T01:37:23.713Z,19.03
2018-07-25T01:39:52.005Z,18.17
2018-07-25T01:42:19.973Z,19.30
2018-07-25T01:44:48.456Z,19.83
2018-07-25T01:47:16.744Z,18.80
2018-07-25T01:49:44.977Z,20.50
2018-07-25T01:52:13.186Z,18.60
2018-07-25T01:54:41.450Z,19.83
2018-07-25T01:57:10.093Z,19.87
2018-07-25T01:59:38.319Z,19.70
2018-07-25T02:02:07.106Z,22.77
2018-07-25T02:04:35.345Z,20.97
2018-07-25T02:07:03.582Z,19.63
2018-07-25T02:09:31.833Z,19.30
2018-07-25T02:12:00.068Z,19.50
2018-07-25T02:14:28.290Z,18.77
2018-07-25T02:16:56.554Z,18.20
2018-07-25T02:19:24.778Z,19.33
2018-07-25T02:21:53.043Z,20.80
2018-07-25T02:24:21.293Z,18.30
2018-07-25T02:26:49.581Z,19.80
2018-07-25T02:29:17.830Z,19.30
2018-07-25T02:31:46.020Z,19.13
2018-07-25T02:34:21.010Z,18.60
2018-07-25T02:36:50.139Z,19.10
2018-07-25T02:39:18.412Z,21.10
2018-07-25T02:41:46.635Z,19.60
2018-07-25T02:44:15.252Z,18.60
2018-07-25T02:46:43.604Z,19.40
2018-07-25T02:49:11.854Z,19.40
2018-07-25T02:51:40.107Z,18.70
2018-07-25T02:54:08.690Z,18.57
2018-07-25T02:56:36.967Z,19.50
2018-07-25T02:59:06.265Z,19.37
2018-07-25T03:01:34.912Z,19.93
2018-07-25T03:04:03.422Z,20.10
2018-07-25T03:06:31.666Z,19.70
2018-07-25T03:08:59.982Z,19.80
2018-07-25T03:11:28.200Z,20.63
2018-07-25T03:13:56.492Z,20.23
2018-07-25T03:16:24.770Z,22.37
2018-07-25T03:18:52.995Z,19.03
2018-07-25T03:21:21.274Z,19.50
2018-07-25T03:23:49.839Z,20.77
2018-07-25T03:26:18.082Z,19.87
2018-07-25T03:28:46.371Z,19.50
2018-07-25T03:31:14.678Z,18.90
2018-07-25T03:33:42.969Z,19.60
2018-07-25T03:36:11.467Z,19.03
2018-07-25T03:38:39.710Z,20.20
2018-07-25T03:41:07.986Z,20.53
2018-07-25T03:43:36.264Z,20.17
2018-07-25T03:46:04.578Z,20.37
2018-07-25T03:48:32.838Z,19.10
2018-07-25T03:51:01.084Z,19.67
2018-07-25T03:53:29.788Z,19.17
2018-07-25T03:55:58.057Z,21.30
2018-07-25T03:58:26.331Z,22.10
2018-07-25T04:00:54.589Z,19.87
2018-07-25T04:03:22.864Z,20.17
2018-07-25T04:05:51.165Z,21.10
2018-07-25T04:08:19.413Z,19.30
2018-07-25T04:10:48.306Z,19.43
2018-07-25T04:13:17.130Z,19.60
2018-07-25T04:15:45.408Z,20.67
2018-07-25T04:18:13.655Z,20.63
2018-07-25T04:20:42.030Z,21.17
2018-07-25T04:23:10.218Z,21.23
2018-07-25T04:25:38.494Z,21.83
2018-07-25T04:28:06.751Z,21.37
2018-07-25T04:30:34.978Z,20.30
2018-07-25T04:33:03.182Z,19.70
2018-07-25T04:35:31.450Z,20.20
2018-07-25T04:37:59.665Z,20.67
2018-07-25T04:40:27.898Z,19.20
2018-07-25T04:42:56.139Z,19.30
2018-07-25T04:45:24.378Z,18.77
2018-07-25T04:47:52.630Z,20.37
2018-07-25T04:50:20.842Z,20.00
2018-07-25T04:52:49.105Z,20.50
2018-07-25T04:55:17.360Z,18.63
2018-07-25T04:57:45.533Z,18.10
2018-07-25T05:00:13.754Z,17.93
2018-07-25T05:02:42.016Z,19.70
2018-07-25T05:05:10.256Z,19.90
2018-07-25T05:07:38.458Z,21.57
2018-07-25T05:10:06.660Z,21.03
2018-07-25T05:12:36.969Z,20.27
2018-07-25T05:15:06.047Z,21.80
2018-07-25T05:17:34.286Z,20.67
2018-07-25T05:20:02.499Z,19.40
2018-07-25T05:22:30.728Z,21.07
2018-07-25T05:24:59.797Z,19.90
2018-07-25T05:27:28.131Z,20.20
2018-07-25T05:29:56.342Z,20.40
2018-07-25T05:32:25.617Z,20.00
2018-07-25T05:34:53.898Z,20.00
2018-07-25T05:37:22.182Z,19.47
2018-07-25T05:39:50.552Z,19.77
2018-07-25T05:42:18.836Z,20.20
2018-07-25T05:44:47.208Z,19.50
2018-07-25T05:47:15.489Z,20.57
2018-07-25T05:49:43.753Z,19.90
2018-07-25T05:52:13.066Z,17.83
2018-07-25T05:54:41.954Z,17.93
2018-07-25T05:57:10.236Z,18.70
2018-07-25T05:59:38.487Z,19.00
2018-07-25T06:02:06.876Z,16.90
2018-07-25T06:04:35.198Z,18.40
2018-07-25T06:07:04.532Z,17.47
2018-07-25T06:09:32.923Z,18.47
2018-07-25T06:12:01.184Z,16.70
2018-07-25T06:14:29.511Z,17.20
2018-07-25T06:16:57.779Z,17.00
2018-07-25T06:19:26.038Z,18.07
2018-07-25T06:21:54.310Z,17.23
2018-07-25T06:24:22.602Z,17.87
2018-07-25T06:26:50.870Z,18.50
2018-07-25T06:29:19.556Z,16.90
2018-07-25T06:31:47.810Z,16.43
2018-07-25T06:34:16.117Z,16.50
2018-07-25T06:36:44.303Z,16.50
2018-07-25T06:39:13.482Z,16.30
2018-07-25T06:41:41.769Z,16.47
2018-07-25T06:44:10.522Z,16.73
2018-07-25T06:46:39.035Z,16.27
2018-07-25T06:49:08.834Z,16.30
2018-07-25T06:51:37.186Z,15.60
2018-07-25T06:54:05.561Z,14.90
2018-07-25T06:56:33.874Z,15.47
2018-07-25T06:59:02.147Z,15.97
2018-07-25T07:01:30.409Z,15.40
2018-07-25T07:03:58.694Z,16.57
2018-07-25T07:06:27.019Z,15.17
2018-07-25T07:08:55.519Z,14.37
2018-07-25T07:11:23.834Z,15.23
2018-07-25T07:13:52.221Z,14.50
2018-07-25T07:16:20.455Z,13.30
2018-07-25T07:18:48.664Z,12.37
2018-07-25T07:21:16.933Z,12.87
2018-07-25T07:23:45.241Z,11.10
2018-07-25T07:26:13.504Z,11.37
2018-07-25T07:28:41.850Z,10.90
2018-07-25T07:31:10.123Z,11.60
2018-07-25T07:33:38.331Z,11.40
2018-07-25T07:36:07.518Z,11.90
2018-07-25T07:38:35.850Z,12.30
2018-07-25T07:41:04.122Z,12.70
2018-07-25T07:43:32.522Z,12.20
2018-07-25T07:46:00.815Z,12.50
2018-07-25T07:48:29.077Z,11.83
2018-07-25T07:50:57.365Z,10.80
2018-07-25T07:53:26.442Z,12.50
2018-07-25T07:55:54.700Z,11.33
2018-07-25T07:58:22.925Z,13.53
2018-07-25T08:00:51.290Z,11.10
2018-07-25T08:03:19.530Z,12.37
2018-07-25T08:05:47.737Z,12.07
2018-07-25T08:08:16.061Z,11.00
2018-07-25T08:10:44.330Z,12.97
2018-07-25T08:13:12.667Z,10.47
2018-07-25T08:15:40.613Z,10.80
2018-07-25T08:18:08.914Z,11.33
2018-07-25T08:20:37.190Z,12.03
2018-07-25T08:23:05.470Z,11.43
2018-07-25T08:25:34.185Z,10.50
2018-07-25T08:28:02.403Z,11.50
2018-07-25T08:30:30.706Z,10.60
2018-07-25T08:32:58.981Z,11.07
2018-07-25T08:35:27.262Z,11.43
2018-07-25T08:37:55.506Z,9.90
2018-07-25T08:40:23.802Z,11.43
2018-07-25T08:42:52.589Z,11.93
2018-07-25T08:45:20.805Z,11.23
2018-07-25T08:47:49.025Z,11.07
2018-07-25T08:50:17.285Z,9.70
2018-07-25T08:52:45.606Z,10.77
2018-07-25T08:55:13.754Z,9.63
2018-07-25T08:57:41.976Z,10.60
2018-07-25T09:00:10.256Z,12.23
2018-07-25T09:02:38.463Z,10.97
2018-07-25T09:05:06.962Z,10.57
2018-07-25T09:07:35.217Z,10.93
2018-07-25T09:10:03.453Z,10.07
2018-07-25T09:12:31.677Z,10.10
2018-07-25T09:14:59.914Z,11.07
2018-07-25T09:17:28.154Z,9.47
2018-07-25T09:19:56.647Z,10.40
2018-07-25T09:22:24.809Z,9.80
2018-07-25T09:24:53.158Z,9.30
2018-07-25T09:27:21.687Z,9.50
2018-07-25T09:29:49.958Z,9.37
2018-07-25T09:32:18.204Z,9.70
2018-07-25T09:34:46.466Z,8.70
2018-07-25T09:37:14.700Z,8.90
2018-07-25T09:39:43.708Z,9.47
2018-07-25T09:42:11.936Z,9.03
2018-07-25T09:44:40.409Z,8.17
2018-07-25T09:47:08.882Z,10.40
2018-07-25T09:49:36.978Z,9.37
2018-07-25T09:52:05.234Z,8.90
2018-07-25T09:54:33.418Z,11.10
2018-07-25T09:57:01.709Z,8.57
2018-07-25T09:59:31.127Z,9.30
2018-07-25T10:01:59.708Z,8.60
2018-07-25T10:04:28.095Z,8.60
2018-07-25T10:06:56.328Z,8.73
2018-07-25T10:09:24.591Z,8.80
2018-07-25T10:11:52.797Z,8.37
2018-07-25T10:14:21.180Z,7.77
2018-07-25T10:16:49.402Z,8.50
2018-07-25T10:19:17.594Z,8.23
2018-07-25T10:21:45.896Z,8.17
2018-07-25T10:24:14.206Z,7.63
2018-07-25T10:26:44.790Z,7.73
2018-07-25T10:29:14.928Z,7.77
2018-07-25T10:31:43.259Z,8.60
2018-07-25T10:34:12.268Z,7.60
2018-07-25T10:36:40.471Z,7.67
2018-07-25T10:39:09.639Z,7.37
2018-07-25T10:41:37.890Z,7.03
2018-07-25T10:44:06.475Z,6.67
2018-07-25T10:46:34.731Z,6.70
2018-07-25T10:49:03.668Z,7.37
2018-07-25T10:51:31.990Z,7.67
2018-07-25T10:54:00.194Z,7.20
2018-07-25T10:56:28.676Z,7.17
2018-07-25T10:58:56.884Z,6.50
2018-07-25T11:01:25.171Z,6.97
2018-07-25T11:03:53.580Z,7.53
2018-07-25T11:06:22.598Z,6.17
2018-07-25T11:08:50.846Z,6.10
2018-07-25T11:11:19.072Z,5.77
2018-07-25T11:13:47.342Z,5.27
2018-07-25T11:16:15.740Z,4.87
2018-07-25T11:18:44.137Z,5.40
2018-07-25T11:21:12.424Z,5.43
2018-07-25T11:23:41.809Z,5.37
2018-07-25T11:26:10.195Z,6.67
2018-07-25T11:28:38.542Z,6.30
2018-07-25T11:31:07.258Z,6.90
2018-07-25T11:33:35.611Z,6.37
2018-07-25T11:36:04.182Z,6.53
2018-07-25T11:38:33.174Z,6.23
2018-07-25T11:41:01.740Z,5.70
2018-07-25T11:43:30.038Z,6.60
2018-07-25T11:45:58.342Z,6.63
2018-07-25T11:48:26.722Z,7.07
2018-07-25T11:50:54.939Z,7.00
2018-07-25T11:53:23.251Z,7.03
2018-07-25T11:55:51.494Z,6.10
2018-07-25T11:58:19.766Z,6.33
2018-07-25T12:00:49.081Z,6.20
2018-07-25T12:03:17.311Z,6.40
2018-07-25T12:05:45.624Z,7.07
2018-07-25T12:08:13.874Z,6.60
2018-07-25T12:10:42.233Z,7.47
2018-07-25T12:13:10.521Z,7.20
2018-07-25T12:15:38.890Z,7.80
2018-07-25T12:18:07.237Z,7.13
2018-07-25T12:20:35.485Z,7.10
2018-07-25T12:23:03.777Z,6.00
2018-07-25T12:25:32.018Z,5.50
2018-07-25T12:28:00.238Z,5.60
2018-07-25T12:30:28.538Z,6.17
2018-07-25T12:32:56.790Z,6.60
2018-07-25T12:35:25.070Z,6.23
2018-07-25T12:37:53.346Z,5.67
2018-07-25T12:40:21.648Z,5.73
2018-07-25T12:42:50.121Z,5.23
2018-07-25T12:45:18.278Z,5.00
2018-07-25T12:47:46.561Z,4.87
2018-07-25T12:50:14.832Z,4.23
2018-07-25T12:52:43.042Z,4.07
2018-07-25T12:55:11.275Z,4.30
2018-07-25T12:57:39.482Z,2.90
2018-07-25T13:00:08.353Z,3.50
2018-07-25T13:02:36.603Z,3.23
2018-07-25T13:05:05.587Z,3.80
2018-07-25T13:07:34.054Z,3.63
2018-07-25T13:10:02.277Z,4.00
2018-07-25T13:12:30.508Z,4.40
2018-07-25T13:14:58.734Z,7.47
2018-07-25T13:17:27.004Z,5.83
2018-07-25T13:19:55.241Z,5.43
2018-07-25T13:22:23.613Z,5.73
2018-07-25T13:24:51.900Z,5.93
2018-07-25T13:27:20.116Z,6.63
2018-07-25T13:29:48.342Z,7.50
2018-07-25T13:32:16.572Z,7.50
2018-07-25T13:34:44.895Z,8.27
2018-07-25T13:37:13.237Z,7.20
2018-07-25T13:39:41.421Z,8.20
2018-07-25T13:42:09.720Z,7.73
2018-07-25T13:44:38.054Z,7.23
2018-07-25T13:47:06.326Z,8.03
2018-07-25T13:49:34.293Z,8.37
2018-07-25T13:52:02.588Z,7.97
2018-07-25T13:54:30.858Z,8.17
2018-07-25T13:56:59.086Z,6.63
2018-07-25T13:59:27.351Z,8.20
2018-07-25T14:01:55.582Z,7.80
2018-07-25T14:04:23.773Z,7.70
2018-07-25T14:06:52.015Z,7.87
2018-07-25T14:09:20.204Z,9.27
2018-07-25T14:11:48.488Z,7.43
2018-07-25T14:14:16.712Z,7.83
2018-07-25T14:16:44.914Z,7.40
2018-07-25T14:19:13.143Z,8.70
2018-07-25T14:21:41.398Z,8.60
2018-07-25T14:24:09.851Z,8.33
2018-07-25T14:26:37.923Z,8.47
2018-07-25T14:29:06.155Z,7.40
2018-07-25T14:31:34.395Z,7.57
2018-07-25T14:34:03.730Z,7.40
2018-07-25T14:36:32.030Z,8.30
2018-07-25T14:39:00.299Z,7.47
2018-07-25T14:41:28.479Z,6.70
2018-07-25T14:43:56.725Z,6.67
2018-07-25T14:46:25.248Z,6.37
2018-07-25T14:48:53.599Z,7.93
2018-07-25T14:51:21.886Z,7.03
2018-07-25T14:53:50.231Z,6.50
2018-07-25T14:56:18.417Z,6.77
2018-07-25T14:58:46.609Z,6.07
2018-07-25T15:01:15.692Z,5.50
2018-07-25T15:03:45.847Z,5.60
2018-07-25T15:06:14.100Z,6.37
2018-07-25T15:08:42.373Z,6.20
2018-07-25T15:11:15.486Z,6.17
2018-07-25T15:13:43.814Z,6.13
2018-07-25T15:16:12.035Z,7.40
2018-07-25T15:18:40.303Z,5.50
2018-07-25T15:21:08.768Z,6.50
2018-07-25T15:23:48.456Z,6.00
2018-07-25T15:26:16.778Z,5.63
2018-07-25T15:28:46.474Z,5.87
2018-07-25T15:31:14.797Z,5.43
2018-07-25T15:33:43.182Z,6.13
2018-07-25T15:36:16.794Z,6.17
2018-07-25T15:38:45.516Z,5.10
2018-07-25T15:41:13.504Z,5.67
2018-07-25T15:43:41.694Z,5.10
2018-07-25T15:46:10.552Z,5.40
2018-07-25T15:48:38.775Z,5.13
2018-07-25T15:51:07.726Z,5.50
2018-07-25T15:53:35.938Z,5.57
2018-07-25T15:56:04.164Z,4.73
2018-07-25T15:58:32.394Z,5.20
2018-07-25T16:01:00.620Z,6.10
2018-07-25T16:03:28.812Z,5.40
2018-07-25T16:05:57.010Z,5.80
2018-07-25T16:08:25.277Z,5.20
2018-07-25T16:10:53.548Z,5.30
2018-07-25T16:13:21.784Z,4.97
2018-07-25T16:15:49.989Z,6.00
2018-07-25T16:18:17.931Z,4.90
2018-07-25T16:20:46.146Z,5.50
2018-07-25T16:23:14.482Z,5.20
2018-07-25T16:25:42.655Z,5.50
2018-07-25T16:28:10.892Z,4.90
2018-07-25T16:30:39.153Z,5.67
2018-07-25T16:33:07.402Z,5.60
2018-07-25T16:35:35.699Z,5.60
2018-07-25T16:38:04.038Z,6.00
2018-07-25T16:40:32.212Z,5.33
2018-07-25T16:43:00.438Z,5.53
2018-07-25T16:45:28.760Z,4.77
2018-07-25T16:47:56.958Z,6.53
2018-07-25T16:50:27.183Z,5.73
2018-07-25T16:52:55.394Z,5.90
2018-07-25T16:55:23.556Z,5.50
2018-07-25T16:57:52.126Z,5.33
2018-07-25T17:00:20.401Z,5.87
2018-07-25T17:02:48.686Z,6.43
2018-07-25T17:05:17.390Z,5.87
2018-07-25T17:07:45.586Z,7.03
2018-07-25T17:10:13.832Z,6.47
2018-07-25T17:12:42.850Z,5.60
2018-07-25T17:15:11.334Z,6.30
2018-07-25T17:17:39.750Z,4.77
2018-07-25T17:20:08.049Z,5.37
2018-07-25T17:22:36.350Z,5.50
2018-07-25T17:25:04.630Z,4.00
2018-07-25T17:27:32.876Z,3.90
2018-07-25T17:30:01.070Z,2.83
2018-07-25T17:32:29.261Z,5.00
2018-07-25T17:34:57.518Z,2.83
2018-07-25T17:37:25.783Z,2.00
2018-07-25T17:39:54.058Z,1.50
2018-07-25T17:42:22.250Z,1.40
2018-07-25T17:44:50.478Z,1.77
2018-07-25T17:47:18.645Z,1.90
2018-07-25T17:49:46.858Z,1.70
2018-07-25T17:52:15.207Z,1.97
2018-07-25T17:54:43.407Z,2.20
2018-07-25T17:57:11.665Z,2.07
2018-07-25T17:59:39.864Z,2.47
2018-07-25T18:02:08.098Z,3.20
2018-07-25T18:04:36.314Z,2.33
2018-07-25T18:07:04.584Z,2.40
2018-07-25T18:09:32.879Z,2.60
2018-07-25T18:12:01.751Z,2.60
2018-07-25T18:14:30.031Z,2.53
2018-07-25T18:16:58.263Z,3.07
2018-07-25T18:19:26.501Z,3.20
2018-07-25T18:21:54.746Z,3.60
2018-07-25T18:24:22.937Z,3.90
2018-07-25T18:26:51.386Z,4.23
2018-07-25T18:29:19.751Z,3.73
2018-07-25T18:31:47.924Z,3.20
2018-07-25T18:34:16.149Z,3.30
2018-07-25T18:36:44.408Z,3.23
2018-07-25T18:39:12.981Z,3.03
2018-07-25T18:41:41.361Z,3.63
2018-07-25T18:44:10.035Z,3.80
2018-07-25T18:46:38.341Z,3.57
2018-07-25T18:49:06.610Z,3.70
2018-07-25T18:51:34.891Z,2.90
2018-07-25T18:54:03.538Z,3.07
2018-07-25T18:56:31.755Z,3.13
2018-07-25T18:58:59.992Z,3.57
2018-07-25T19:01:28.173Z,3.90
2018-07-25T19:03:56.670Z,3.80
2018-07-25T19:06:24.946Z,4.20
2018-07-25T19:08:53.304Z,5.13
2018-07-25T19:11:21.497Z,3.40
2018-07-25T19:13:55.158Z,3.53
2018-07-25T19:16:23.388Z,3.03
2018-07-25T19:18:51.638Z,3.07
2018-07-25T19:21:20.855Z,2.93
2018-07-25T19:23:49.033Z,3.90
2018-07-25T19:26:17.219Z,3.67
2018-07-25T19:28:45.482Z,3.57
2018-07-25T19:31:13.749Z,3.80
2018-07-25T19:33:41.973Z,4.10
2018-07-25T19:36:10.166Z,3.47
2018-07-25T19:38:38.497Z,3.83
2018-07-25T19:41:06.799Z,3.50
2018-07-25T19:43:34.998Z,3.27
2018-07-25T19:46:03.376Z,3.60
2018-07-25T19:48:32.505Z,3.90
2018-07-25T19:51:00.735Z,4.10
2018-07-25T19:53:29.768Z,4.17
2018-07-25T19:55:58.037Z,3.80
2018-07-25T19:58:26.321Z,4.27
2018-07-25T20:00:54.704Z,3.90
2018-07-25T20:03:22.962Z,4.00
2018-07-25T20:05:51.252Z,3.80
2018-07-25T20:08:19.472Z,3.60
2018-07-25T20:10:47.702Z,4.00
2018-07-25T20:13:15.926Z,3.80
2018-07-25T20:16:01.836Z,3.33
2018-07-25T20:18:30.639Z,3.73
2018-07-25T20:20:58.882Z,3.10
2018-07-25T20:23:28.006Z,3.23
2018-07-25T20:25:56.214Z,4.33
2018-07-25T20:28:24.483Z,3.87
2018-07-25T20:30:52.726Z,3.33
2018-07-25T20:33:20.932Z,3.43
2018-07-25T20:35:49.235Z,3.60
2018-07-25T20:38:17.174Z,3.60
2018-07-25T20:40:45.455Z,3.90
2018-07-25T20:43:13.708Z,3.53
2018-07-25T20:45:42.012Z,3.40
2018-07-25T20:48:10.285Z,7.33
2018-07-25T20:50:38.570Z,6.30
2018-07-25T20:53:07.061Z,3.57
2018-07-25T20:55:35.389Z,3.40
2018-07-25T20:58:03.675Z,3.70
2018-07-25T21:00:35.067Z,3.43
2018-07-25T21:03:06.083Z,3.30
2018-07-25T21:05:34.413Z,3.63
2018-07-25T21:08:02.711Z,3.90
2018-07-25T21:10:30.984Z,3.40
2018-07-25T21:12:59.281Z,4.60
2018-07-25T21:15:27.526Z,3.30
2018-07-25T21:17:55.714Z,4.77
2018-07-25T21:20:27.353Z,3.57
2018-07-25T21:22:55.547Z,4.07
2018-07-25T21:25:23.843Z,3.90
2018-07-25T21:27:51.810Z,4.63
2018-07-25T21:30:19.973Z,3.80
2018-07-25T21:32:48.199Z,3.67
2018-07-25T21:35:16.394Z,3.93
2018-07-25T21:37:44.669Z,5.30
2018-07-25T21:40:12.942Z,9.50
2018-07-25T21:42:41.138Z,4.43
2018-07-25T21:45:09.306Z,3.10
2018-07-25T21:47:37.574Z,3.80
2018-07-25T21:50:05.878Z,3.17
2018-07-25T21:52:34.099Z,3.97
2018-07-25T21:55:02.348Z,4.03
2018-07-25T21:57:30.602Z,4.20
2018-07-25T21:59:58.929Z,3.90
2018-07-25T22:02:27.143Z,3.50
2018-07-25T22:04:55.122Z,4.50
2018-07-25T22:07:23.354Z,4.03
2018-07-25T22:09:51.523Z,4.07
2018-07-25T22:12:19.702Z,4.10
2018-07-25T22:14:47.912Z,3.57
2018-07-25T22:17:16.090Z,4.50
2018-07-25T22:19:44.343Z,4.23
2018-07-25T22:22:12.525Z,4.37
2018-07-25T22:24:40.819Z,4.37
2018-07-25T22:27:08.847Z,3.90
2018-07-25T22:29:37.033Z,4.17
2018-07-25T22:32:05.906Z,5.03
2018-07-25T22:34:34.110Z,4.70
2018-07-25T22:37:02.352Z,4.20
2018-07-25T22:39:30.578Z,4.70
2018-07-25T22:41:58.805Z,4.53
2018-07-25T22:44:27.329Z,4.10
2018-07-25T22:46:55.661Z,4.47
2018-07-25T22:49:23.901Z,4.87
2018-07-25T22:51:52.131Z,4.43
2018-07-25T22:54:20.371Z,4.00
2018-07-25T22:56:48.594Z,3.77
2018-07-25T22:59:17.169Z,4.03
2018-07-25T23:01:45.353Z,4.03
2018-07-25T23:04:13.978Z,4.33
2018-07-25T23:06:42.210Z,3.53
2018-07-25T23:09:11.302Z,4.77
2018-07-25T23:11:39.956Z,5.20
2018-07-25T23:14:08.183Z,4.90
2018-07-25T23:16:36.426Z,4.43
2018-07-25T23:19:04.618Z,4.50
2018-07-25T23:21:32.865Z,4.70
2018-07-25T23:24:01.097Z,4.97
2018-07-25T23:26:29.320Z,3.90
2018-07-25T23:28:57.514Z,4.30
2018-07-25T23:31:25.722Z,4.43
2018-07-25T23:33:53.942Z,5.03
2018-07-25T23:36:22.125Z,3.97
2018-07-25T23:38:50.377Z,4.20
2018-07-25T23:41:18.551Z,5.27
2018-07-25T23:43:46.869Z,4.77
2018-07-25T23:46:15.065Z,4.23
2018-07-25T23:48:43.324Z,4.33
2018-07-25T23:51:11.524Z,4.60
2018-07-25T23:53:39.725Z,4.90
2018-07-25T23:56:07.933Z,4.90
2018-07-25T23:58:36.150Z,5.60
